Terminal Aerodrome Forecast
Issued by NWS Knoxville/Tri Cities, TN

Home | Current Version | Previous Version | Text Only | Print | Product List | Glossary On
Versions: 1 2 3 4 5 6 7 8 9 10 11 12 13 14 15 16 17 18 19 20 21 22 23 24 25 26
000
FTUS44 KMRX 121130
TAFTYS
TAF
KTYS 121130Z 1212/1312 26012G20KT P6SM BKN035
     FM121500 28015G25KT P6SM -SHSN OVC025
     FM121800 27015G25KT P6SM BKN035
     FM130000 27011KT P6SM SKC
     FM130700 25006KT P6SM SKC=

USA.gov is the U.S. government's official web portal to all federal, state and local government web resources and services.